Adrian, Ohio
Current Conditions -  °F | °C
As of 6:53 AM on Wednesday 26 Nov 2014 (Local Time) from KFDY Reporting Station
Overcast Overcast  
Wind Chill: -6°   Ceiling: 1900
Heat Index: -2°   Visibility: 10mi
Dew Point: -7°   Wind: 8mph
Humidity: 69%   Direction: 40°NE
Pressure: 30.14"   Gusts: NA
Location:  41°N, 83.32°W
Report Text: KFDY 261153Z AUTO 04007KT 10SM OVC019 M02/M07 A3014 RMK AO2 SLP212 T10171067 11011 21017 58004
Loading
Personal Weather Stations






























Interactive Weather Map New forecast layout! Learn more

10-Day Weather Forecast

Advertisements
Track Severe Weather on mobile